sensor_id;sensor_type;location;lat;lon;timestamp;P1;durP1;ratioP1;P2;durP2;ratioP2
21905;SDS011;11117;48.644;9.006;2023-04-03T00:01:09;10.70;;;5.13;;
21905;SDS011;11117;48.644;9.006;2023-04-03T00:03:35;8.63;;;4.73;;
21905;SDS011;11117;48.644;9.006;2023-04-03T00:06:01;8.03;;;5.03;;
21905;SDS011;11117;48.644;9.006;2023-04-03T00:08:28;7.73;;;5.03;;
21905;SDS011;11117;48.644;9.006;2023-04-03T00:10:54;7.60;;;4.47;;
21905;SDS011;11117;48.644;9.006;2023-04-03T00:13:19;8.10;;;5.07;;
21905;SDS011;11117;48.644;9.006;2023-04-03T00:15:45;7.97;;;4.80;;
21905;SDS011;11117;48.644;9.006;2023-04-03T00:18:10;7.83;;;4.77;;
21905;SDS011;11117;48.644;9.006;2023-04-03T00:20:36;10.50;;;4.90;;
21905;SDS011;11117;48.644;9.006;2023-04-03T00:23:02;9.07;;;4.50;;
21905;SDS011;11117;48.644;9.006;2023-04-03T00:25:28;7.57;;;4.60;;
21905;SDS011;11117;48.644;9.006;2023-04-03T00:27:53;8.00;;;5.00;;
21905;SDS011;11117;48.644;9.006;2023-04-03T00:30:20;7.13;;;4.97;;
21905;SDS011;11117;48.644;9.006;2023-04-03T00:32:49;6.47;;;4.70;;
21905;SDS011;11117;48.644;9.006;2023-04-03T00:35:16;8.27;;;4.50;;
21905;SDS011;11117;48.644;9.006;2023-04-03T00:37:42;10.20;;;5.00;;
21905;SDS011;11117;48.644;9.006;2023-04-03T00:40:08;6.63;;;4.70;;
21905;SDS011;11117;48.644;9.006;2023-04-03T00:42:35;7.73;;;4.70;;
21905;SDS011;11117;48.644;9.006;2023-04-03T00:47:27;6.57;;;4.20;;
21905;SDS011;11117;48.644;9.006;2023-04-03T00:49:53;7.67;;;4.87;;
21905;SDS011;11117;48.644;9.006;2023-04-03T00:52:19;8.60;;;4.40;;
21905;SDS011;11117;48.644;9.006;2023-04-03T00:54:49;8.23;;;4.80;;
21905;SDS011;11117;48.644;9.006;2023-04-03T00:57:17;6.93;;;4.50;;
21905;SDS011;11117;48.644;9.006;2023-04-03T00:59:44;7.83;;;4.80;;
21905;SDS011;11117;48.644;9.006;2023-04-03T01:02:14;8.53;;;4.83;;
21905;SDS011;11117;48.644;9.006;2023-04-03T01:04:40;9.80;;;4.87;;
21905;SDS011;11117;48.644;9.006;2023-04-03T01:07:09;10.97;;;4.77;;
21905;SDS011;11117;48.644;9.006;2023-04-03T01:09:37;6.93;;;4.60;;
21905;SDS011;11117;48.644;9.006;2023-04-03T01:14:47;8.70;;;4.87;;
21905;SDS011;11117;48.644;9.006;2023-04-03T01:22:59;8.03;;;4.77;;
21905;SDS011;11117;48.644;9.006;2023-04-03T01:25:28;8.70;;;4.87;;
21905;SDS011;11117;48.644;9.006;2023-04-03T01:27:54;8.50;;;4.80;;
21905;SDS011;11117;48.644;9.006;2023-04-03T01:30:20;7.90;;;4.67;;
21905;SDS011;11117;48.644;9.006;2023-04-03T01:32:48;10.47;;;4.90;;
21905;SDS011;11117;48.644;9.006;2023-04-03T01:35:14;10.70;;;4.80;;
21905;SDS011;11117;48.644;9.006;2023-04-03T01:37:39;7.53;;;4.30;;
21905;SDS011;11117;48.644;9.006;2023-04-03T01:40:05;9.87;;;4.90;;
21905;SDS011;11117;48.644;9.006;2023-04-03T01:42:31;7.33;;;4.10;;
21905;SDS011;11117;48.644;9.006;2023-04-03T01:44:57;9.10;;;4.53;;
21905;SDS011;11117;48.644;9.006;2023-04-03T01:47:22;9.00;;;4.30;;
21905;SDS011;11117;48.644;9.006;2023-04-03T01:49:48;7.57;;;4.50;;
21905;SDS011;11117;48.644;9.006;2023-04-03T01:52:14;10.63;;;4.90;;
21905;SDS011;11117;48.644;9.006;2023-04-03T01:54:39;7.57;;;4.53;;
21905;SDS011;11117;48.644;9.006;2023-04-03T01:57:05;7.27;;;4.70;;
21905;SDS011;11117;48.644;9.006;2023-04-03T01:59:30;6.17;;;4.23;;
21905;SDS011;11117;48.644;9.006;2023-04-03T02:01:58;7.03;;;4.53;;
21905;SDS011;11117;48.644;9.006;2023-04-03T02:04:24;7.83;;;4.37;;
21905;SDS011;11117;48.644;9.006;2023-04-03T02:06:49;9.70;;;4.60;;
21905;SDS011;11117;48.644;9.006;2023-04-03T02:09:15;9.33;;;4.23;;
21905;SDS011;11117;48.644;9.006;2023-04-03T02:11:40;7.83;;;4.97;;
21905;SDS011;11117;48.644;9.006;2023-04-03T02:14:06;6.73;;;4.40;;
21905;SDS011;11117;48.644;9.006;2023-04-03T02:16:31;6.67;;;3.20;;
21905;SDS011;11117;48.644;9.006;2023-04-03T02:18:57;6.27;;;4.30;;
21905;SDS011;11117;48.644;9.006;2023-04-03T02:21:23;8.20;;;4.60;;
21905;SDS011;11117;48.644;9.006;2023-04-03T02:23:49;7.23;;;4.60;;
21905;SDS011;11117;48.644;9.006;2023-04-03T02:26:15;6.23;;;4.63;;
21905;SDS011;11117;48.644;9.006;2023-04-03T02:28:41;14.60;;;5.30;;
21905;SDS011;11117;48.644;9.006;2023-04-03T02:31:07;8.30;;;4.97;;
21905;SDS011;11117;48.644;9.006;2023-04-03T02:33:34;8.03;;;4.37;;
21905;SDS011;11117;48.644;9.006;2023-04-03T02:36:00;7.40;;;4.77;;
21905;SDS011;11117;48.644;9.006;2023-04-03T02:38:26;8.33;;;4.90;;
21905;SDS011;11117;48.644;9.006;2023-04-03T02:40:51;7.80;;;5.00;;
21905;SDS011;11117;48.644;9.006;2023-04-03T02:43:17;7.80;;;4.77;;
21905;SDS011;11117;48.644;9.006;2023-04-03T02:45:51;6.20;;;4.43;;
21905;SDS011;11117;48.644;9.006;2023-04-03T02:48:17;7.20;;;4.00;;
21905;SDS011;11117;48.644;9.006;2023-04-03T02:50:42;8.67;;;4.67;;
21905;SDS011;11117;48.644;9.006;2023-04-03T02:53:08;6.73;;;4.60;;
21905;SDS011;11117;48.644;9.006;2023-04-03T02:55:33;7.53;;;5.23;;
21905;SDS011;11117;48.644;9.006;2023-04-03T02:57:59;6.77;;;4.73;;
21905;SDS011;11117;48.644;9.006;2023-04-03T03:00:24;8.43;;;4.60;;
21905;SDS011;11117;48.644;9.006;2023-04-03T03:02:50;7.07;;;4.50;;
21905;SDS011;11117;48.644;9.006;2023-04-03T03:05:16;8.53;;;5.03;;
21905;SDS011;11117;48.644;9.006;2023-04-03T03:07:42;7.37;;;4.20;;
21905;SDS011;11117;48.644;9.006;2023-04-03T03:10:07;7.77;;;4.27;;
21905;SDS011;11117;48.644;9.006;2023-04-03T03:12:33;7.43;;;4.10;;
21905;SDS011;11117;48.644;9.006;2023-04-03T03:14:59;7.57;;;3.87;;
21905;SDS011;11117;48.644;9.006;2023-04-03T03:17:24;6.80;;;4.30;;
21905;SDS011;11117;48.644;9.006;2023-04-03T03:19:50;6.17;;;4.40;;
21905;SDS011;11117;48.644;9.006;2023-04-03T03:22:16;6.73;;;4.10;;
21905;SDS011;11117;48.644;9.006;2023-04-03T03:24:41;9.63;;;4.20;;
21905;SDS011;11117;48.644;9.006;2023-04-03T03:27:07;7.97;;;4.40;;
21905;SDS011;11117;48.644;9.006;2023-04-03T03:29:32;9.27;;;4.40;;
21905;SDS011;11117;48.644;9.006;2023-04-03T03:31:59;6.37;;;4.33;;
21905;SDS011;11117;48.644;9.006;2023-04-03T03:34:24;9.70;;;4.40;;
21905;SDS011;11117;48.644;9.006;2023-04-03T03:36:50;8.07;;;4.20;;
21905;SDS011;11117;48.644;9.006;2023-04-03T03:39:15;9.37;;;4.50;;
21905;SDS011;11117;48.644;9.006;2023-04-03T03:41:41;9.73;;;4.77;;
21905;SDS011;11117;48.644;9.006;2023-04-03T03:44:06;9.07;;;4.90;;
21905;SDS011;11117;48.644;9.006;2023-04-03T03:46:32;7.43;;;4.67;;
21905;SDS011;11117;48.644;9.006;2023-04-03T03:48:57;8.17;;;4.27;;
21905;SDS011;11117;48.644;9.006;2023-04-03T03:51:23;6.03;;;4.27;;
21905;SDS011;11117;48.644;9.006;2023-04-03T03:53:48;6.27;;;4.50;;
21905;SDS011;11117;48.644;9.006;2023-04-03T03:56:14;6.00;;;4.30;;
21905;SDS011;11117;48.644;9.006;2023-04-03T03:58:40;8.20;;;4.47;;
21905;SDS011;11117;48.644;9.006;2023-04-03T04:01:05;8.53;;;4.50;;
21905;SDS011;11117;48.644;9.006;2023-04-03T04:03:32;7.40;;;4.20;;
21905;SDS011;11117;48.644;9.006;2023-04-03T04:05:57;5.77;;;3.87;;
21905;SDS011;11117;48.644;9.006;2023-04-03T04:08:23;8.77;;;4.40;;
21905;SDS011;11117;48.644;9.006;2023-04-03T04:10:49;6.73;;;4.43;;
21905;SDS011;11117;48.644;9.006;2023-04-03T04:13:15;7.73;;;4.60;;
21905;SDS011;11117;48.644;9.006;2023-04-03T04:15:40;9.20;;;4.40;;
21905;SDS011;11117;48.644;9.006;2023-04-03T04:18:07;7.67;;;4.07;;
21905;SDS011;11117;48.644;9.006;2023-04-03T04:20:32;6.00;;;4.23;;
21905;SDS011;11117;48.644;9.006;2023-04-03T04:22:58;6.70;;;4.53;;
21905;SDS011;11117;48.644;9.006;2023-04-03T04:25:24;7.50;;;4.67;;
21905;SDS011;11117;48.644;9.006;2023-04-03T04:27:49;7.17;;;4.10;;
21905;SDS011;11117;48.644;9.006;2023-04-03T04:30:15;8.33;;;4.33;;
21905;SDS011;11117;48.644;9.006;2023-04-03T04:32:40;8.67;;;4.63;;
21905;SDS011;11117;48.644;9.006;2023-04-03T04:35:06;6.97;;;4.07;;
21905;SDS011;11117;48.644;9.006;2023-04-03T04:37:32;5.70;;;4.00;;
21905;SDS011;11117;48.644;9.006;2023-04-03T04:39:57;7.80;;;4.40;;
21905;SDS011;11117;48.644;9.006;2023-04-03T04:42:23;8.17;;;5.00;;
21905;SDS011;11117;48.644;9.006;2023-04-03T04:44:49;6.53;;;4.00;;
21905;SDS011;11117;48.644;9.006;2023-04-03T04:47:14;6.03;;;3.93;;
21905;SDS011;11117;48.644;9.006;2023-04-03T04:49:40;7.37;;;4.83;;
21905;SDS011;11117;48.644;9.006;2023-04-03T04:52:05;8.70;;;4.30;;
21905;SDS011;11117;48.644;9.006;2023-04-03T04:54:31;8.40;;;4.33;;
21905;SDS011;11117;48.644;9.006;2023-04-03T04:56:57;5.97;;;4.40;;
21905;SDS011;11117;48.644;9.006;2023-04-03T04:59:23;5.53;;;4.07;;
21905;SDS011;11117;48.644;9.006;2023-04-03T05:01:48;7.60;;;4.40;;
21905;SDS011;11117;48.644;9.006;2023-04-03T05:04:14;7.50;;;4.33;;
21905;SDS011;11117;48.644;9.006;2023-04-03T05:06:40;6.30;;;4.40;;
21905;SDS011;11117;48.644;9.006;2023-04-03T05:09:06;8.20;;;4.50;;
21905;SDS011;11117;48.644;9.006;2023-04-03T05:11:32;8.70;;;4.60;;
21905;SDS011;11117;48.644;9.006;2023-04-03T05:13:57;8.80;;;4.67;;
21905;SDS011;11117;48.644;9.006;2023-04-03T05:16:23;7.53;;;4.87;;
21905;SDS011;11117;48.644;9.006;2023-04-03T05:18:49;8.27;;;4.30;;
21905;SDS011;11117;48.644;9.006;2023-04-03T05:21:14;9.83;;;4.57;;
21905;SDS011;11117;48.644;9.006;2023-04-03T05:23:40;15.70;;;4.63;;
21905;SDS011;11117;48.644;9.006;2023-04-03T05:26:05;6.87;;;4.30;;
21905;SDS011;11117;48.644;9.006;2023-04-03T05:28:31;7.10;;;4.93;;
21905;SDS011;11117;48.644;9.006;2023-04-03T05:30:57;6.33;;;4.10;;
21905;SDS011;11117;48.644;9.006;2023-04-03T05:33:24;5.97;;;3.73;;
21905;SDS011;11117;48.644;9.006;2023-04-03T05:35:49;7.30;;;4.00;;
21905;SDS011;11117;48.644;9.006;2023-04-03T05:38:15;5.87;;;3.77;;
21905;SDS011;11117;48.644;9.006;2023-04-03T05:40:41;10.20;;;3.93;;
21905;SDS011;11117;48.644;9.006;2023-04-03T05:43:06;5.50;;;3.53;;
21905;SDS011;11117;48.644;9.006;2023-04-03T05:45:32;6.10;;;3.07;;
21905;SDS011;11117;48.644;9.006;2023-04-03T05:47:57;6.07;;;3.60;;
21905;SDS011;11117;48.644;9.006;2023-04-03T05:50:23;6.07;;;3.47;;
21905;SDS011;11117;48.644;9.006;2023-04-03T05:52:49;5.53;;;3.40;;
21905;SDS011;11117;48.644;9.006;2023-04-03T05:55:16;11.27;;;3.50;;
21905;SDS011;11117;48.644;9.006;2023-04-03T05:57:41;5.30;;;3.50;;
21905;SDS011;11117;48.644;9.006;2023-04-03T06:00:07;4.87;;;3.40;;
21905;SDS011;11117;48.644;9.006;2023-04-03T06:02:34;5.77;;;3.30;;
21905;SDS011;11117;48.644;9.006;2023-04-03T06:05:00;4.07;;;2.73;;
21905;SDS011;11117;48.644;9.006;2023-04-03T06:07:25;8.43;;;2.93;;
21905;SDS011;11117;48.644;9.006;2023-04-03T06:09:51;4.33;;;2.70;;
21905;SDS011;11117;48.644;9.006;2023-04-03T06:12:17;4.10;;;3.03;;
21905;SDS011;11117;48.644;9.006;2023-04-03T06:14:43;5.13;;;2.93;;
21905;SDS011;11117;48.644;9.006;2023-04-03T06:17:08;4.43;;;2.90;;
21905;SDS011;11117;48.644;9.006;2023-04-03T06:19:35;6.37;;;3.23;;
21905;SDS011;11117;48.644;9.006;2023-04-03T06:22:01;4.33;;;3.10;;
21905;SDS011;11117;48.644;9.006;2023-04-03T06:24:26;5.93;;;3.30;;
21905;SDS011;11117;48.644;9.006;2023-04-03T06:26:52;6.43;;;3.73;;
21905;SDS011;11117;48.644;9.006;2023-04-03T06:29:18;5.70;;;3.53;;
21905;SDS011;11117;48.644;9.006;2023-04-03T06:31:44;7.20;;;3.50;;
21905;SDS011;11117;48.644;9.006;2023-04-03T06:34:10;5.67;;;3.53;;
21905;SDS011;11117;48.644;9.006;2023-04-03T06:36:36;5.23;;;3.60;;
21905;SDS011;11117;48.644;9.006;2023-04-03T06:39:02;6.20;;;3.77;;
21905;SDS011;11117;48.644;9.006;2023-04-03T06:41:28;7.00;;;3.57;;
21905;SDS011;11117;48.644;9.006;2023-04-03T06:43:54;8.77;;;4.00;;
21905;SDS011;11117;48.644;9.006;2023-04-03T06:46:21;5.37;;;3.67;;
21905;SDS011;11117;48.644;9.006;2023-04-03T06:48:47;6.23;;;3.47;;
21905;SDS011;11117;48.644;9.006;2023-04-03T06:53:46;5.67;;;3.40;;
21905;SDS011;11117;48.644;9.006;2023-04-03T06:56:12;6.10;;;3.50;;
21905;SDS011;11117;48.644;9.006;2023-04-03T06:58:38;5.50;;;3.77;;
21905;SDS011;11117;48.644;9.006;2023-04-03T07:01:04;6.27;;;3.67;;
21905;SDS011;11117;48.644;9.006;2023-04-03T07:03:30;4.67;;;3.27;;
21905;SDS011;11117;48.644;9.006;2023-04-03T07:05:55;4.83;;;3.50;;
21905;SDS011;11117;48.644;9.006;2023-04-03T07:08:21;5.10;;;3.43;;
21905;SDS011;11117;48.644;9.006;2023-04-03T07:10:46;6.07;;;3.33;;
21905;SDS011;11117;48.644;9.006;2023-04-03T07:13:12;5.90;;;3.17;;
21905;SDS011;11117;48.644;9.006;2023-04-03T07:15:37;5.80;;;3.47;;
21905;SDS011;11117;48.644;9.006;2023-04-03T07:18:03;8.30;;;4.03;;
21905;SDS011;11117;48.644;9.006;2023-04-03T07:20:28;6.23;;;3.33;;
21905;SDS011;11117;48.644;9.006;2023-04-03T07:22:54;4.83;;;3.10;;
21905;SDS011;11117;48.644;9.006;2023-04-03T07:25:19;8.27;;;3.37;;
21905;SDS011;11117;48.644;9.006;2023-04-03T07:27:45;7.90;;;3.30;;
21905;SDS011;11117;48.644;9.006;2023-04-03T07:30:10;8.50;;;3.70;;
21905;SDS011;11117;48.644;9.006;2023-04-03T07:32:36;5.80;;;3.27;;
21905;SDS011;11117;48.644;9.006;2023-04-03T07:35:02;5.83;;;3.13;;
21905;SDS011;11117;48.644;9.006;2023-04-03T07:37:28;6.10;;;2.63;;
21905;SDS011;11117;48.644;9.006;2023-04-03T07:39:54;5.03;;;3.40;;
21905;SDS011;11117;48.644;9.006;2023-04-03T07:42:19;4.93;;;3.10;;
21905;SDS011;11117;48.644;9.006;2023-04-03T07:44:45;6.93;;;3.10;;
21905;SDS011;11117;48.644;9.006;2023-04-03T07:47:10;3.93;;;3.00;;
21905;SDS011;11117;48.644;9.006;2023-04-03T07:49:36;5.50;;;3.30;;
21905;SDS011;11117;48.644;9.006;2023-04-03T07:52:01;4.20;;;2.83;;
21905;SDS011;11117;48.644;9.006;2023-04-03T07:54:27;4.07;;;2.93;;
21905;SDS011;11117;48.644;9.006;2023-04-03T07:56:52;5.93;;;3.10;;
21905;SDS011;11117;48.644;9.006;2023-04-03T07:59:18;4.40;;;2.93;;
21905;SDS011;11117;48.644;9.006;2023-04-03T08:01:43;4.60;;;2.83;;
21905;SDS011;11117;48.644;9.006;2023-04-03T08:04:09;5.87;;;2.97;;
21905;SDS011;11117;48.644;9.006;2023-04-03T08:06:35;4.00;;;2.83;;
21905;SDS011;11117;48.644;9.006;2023-04-03T08:09:01;6.47;;;3.27;;
21905;SDS011;11117;48.644;9.006;2023-04-03T08:11:28;5.57;;;3.37;;
21905;SDS011;11117;48.644;9.006;2023-04-03T08:13:53;7.03;;;3.67;;
21905;SDS011;11117;48.644;9.006;2023-04-03T08:16:20;5.67;;;2.87;;
21905;SDS011;11117;48.644;9.006;2023-04-03T08:18:47;6.53;;;3.20;;
21905;SDS011;11117;48.644;9.006;2023-04-03T08:21:13;7.57;;;3.10;;
21905;SDS011;11117;48.644;9.006;2023-04-03T08:23:40;5.17;;;3.20;;
21905;SDS011;11117;48.644;9.006;2023-04-03T08:26:06;6.37;;;3.27;;
21905;SDS011;11117;48.644;9.006;2023-04-03T08:28:36;4.43;;;3.30;;
21905;SDS011;11117;48.644;9.006;2023-04-03T08:31:04;6.70;;;2.93;;
21905;SDS011;11117;48.644;9.006;2023-04-03T08:33:30;4.40;;;3.03;;
21905;SDS011;11117;48.644;9.006;2023-04-03T08:35:56;4.03;;;2.83;;
21905;SDS011;11117;48.644;9.006;2023-04-03T08:38:22;8.03;;;3.57;;
21905;SDS011;11117;48.644;9.006;2023-04-03T08:40:47;4.57;;;2.90;;
21905;SDS011;11117;48.644;9.006;2023-04-03T08:46:20;8.40;;;3.30;;
21905;SDS011;11117;48.644;9.006;2023-04-03T08:48:50;6.73;;;3.10;;
21905;SDS011;11117;48.644;9.006;2023-04-03T08:51:17;5.50;;;3.23;;
21905;SDS011;11117;48.644;9.006;2023-04-03T08:53:58;5.37;;;3.20;;
21905;SDS011;11117;48.644;9.006;2023-04-03T08:56:31;5.17;;;3.57;;
21905;SDS011;11117;48.644;9.006;2023-04-03T08:59:00;8.47;;;3.30;;
21905;SDS011;11117;48.644;9.006;2023-04-03T09:01:33;4.47;;;3.20;;
21905;SDS011;11117;48.644;9.006;2023-04-03T09:04:01;6.20;;;3.50;;
21905;SDS011;11117;48.644;9.006;2023-04-03T09:06:31;8.27;;;3.70;;
21905;SDS011;11117;48.644;9.006;2023-04-03T09:17:15;7.10;;;3.30;;
21905;SDS011;11117;48.644;9.006;2023-04-03T09:20:13;5.33;;;3.37;;
21905;SDS011;11117;48.644;9.006;2023-04-03T09:23:00;5.47;;;3.43;;
21905;SDS011;11117;48.644;9.006;2023-04-03T09:25:33;7.37;;;3.43;;
21905;SDS011;11117;48.644;9.006;2023-04-03T09:28:02;6.10;;;3.23;;
21905;SDS011;11117;48.644;9.006;2023-04-03T09:30:28;5.77;;;3.33;;
21905;SDS011;11117;48.644;9.006;2023-04-03T09:32:55;7.30;;;3.37;;
21905;SDS011;11117;48.644;9.006;2023-04-03T09:35:24;7.83;;;3.43;;
21905;SDS011;11117;48.644;9.006;2023-04-03T09:37:52;3.87;;;3.27;;
21905;SDS011;11117;48.644;9.006;2023-04-03T09:43:01;4.50;;;3.30;;
21905;SDS011;11117;48.644;9.006;2023-04-03T09:45:44;4.07;;;3.23;;
21905;SDS011;11117;48.644;9.006;2023-04-03T09:53:33;5.77;;;3.23;;
21905;SDS011;11117;48.644;9.006;2023-04-03T09:56:05;4.77;;;3.27;;
21905;SDS011;11117;48.644;9.006;2023-04-03T09:58:47;5.27;;;3.43;;
21905;SDS011;11117;48.644;9.006;2023-04-03T10:01:22;6.47;;;3.40;;
21905;SDS011;11117;48.644;9.006;2023-04-03T10:06:36;8.23;;;3.20;;
21905;SDS011;11117;48.644;9.006;2023-04-03T10:09:15;7.40;;;3.10;;
21905;SDS011;11117;48.644;9.006;2023-04-03T10:12:01;6.03;;;3.70;;
21905;SDS011;11117;48.644;9.006;2023-04-03T10:14:32;7.87;;;3.40;;
21905;SDS011;11117;48.644;9.006;2023-04-03T10:19:52;6.17;;;3.43;;
21905;SDS011;11117;48.644;9.006;2023-04-03T10:24:59;5.00;;;2.90;;
21905;SDS011;11117;48.644;9.006;2023-04-03T10:27:55;6.97;;;3.33;;
21905;SDS011;11117;48.644;9.006;2023-04-03T10:30:40;6.43;;;3.13;;
21905;SDS011;11117;48.644;9.006;2023-04-03T10:39:25;4.60;;;2.80;;
21905;SDS011;11117;48.644;9.006;2023-04-03T10:44:46;4.23;;;2.73;;
21905;SDS011;11117;48.644;9.006;2023-04-03T10:52:24;7.70;;;3.13;;
21905;SDS011;11117;48.644;9.006;2023-04-03T10:57:59;5.33;;;3.03;;
21905;SDS011;11117;48.644;9.006;2023-04-03T11:00:29;3.00;;;1.83;;
21905;SDS011;11117;48.644;9.006;2023-04-03T11:02:56;3.97;;;2.70;;
21905;SDS011;11117;48.644;9.006;2023-04-03T11:05:42;4.47;;;2.57;;
21905;SDS011;11117;48.644;9.006;2023-04-03T11:11:19;4.03;;;2.47;;
21905;SDS011;11117;48.644;9.006;2023-04-03T11:13:50;5.60;;;2.47;;
21905;SDS011;11117;48.644;9.006;2023-04-03T11:16:36;6.97;;;2.37;;
21905;SDS011;11117;48.644;9.006;2023-04-03T11:19:14;4.43;;;2.30;;
21905;SDS011;11117;48.644;9.006;2023-04-03T11:22:12;4.30;;;1.90;;
21905;SDS011;11117;48.644;9.006;2023-04-03T11:24:42;2.30;;;1.90;;
21905;SDS011;11117;48.644;9.006;2023-04-03T11:27:15;4.47;;;2.30;;
21905;SDS011;11117;48.644;9.006;2023-04-03T11:29:44;4.97;;;2.37;;
21905;SDS011;11117;48.644;9.006;2023-04-03T11:34:56;4.30;;;2.50;;
21905;SDS011;11117;48.644;9.006;2023-04-03T11:37:46;3.67;;;2.47;;
21905;SDS011;11117;48.644;9.006;2023-04-03T11:42:42;8.93;;;2.73;;
21905;SDS011;11117;48.644;9.006;2023-04-03T11:45:32;6.47;;;3.07;;
21905;SDS011;11117;48.644;9.006;2023-04-03T11:48:04;5.80;;;2.93;;
21905;SDS011;11117;48.644;9.006;2023-04-03T11:50:51;3.83;;;2.47;;
21905;SDS011;11117;48.644;9.006;2023-04-03T11:58:13;5.80;;;2.90;;
21905;SDS011;11117;48.644;9.006;2023-04-03T12:05:50;4.43;;;2.60;;
21905;SDS011;11117;48.644;9.006;2023-04-03T12:29:23;9.90;;;2.47;;
21905;SDS011;11117;48.644;9.006;2023-04-03T12:51:13;4.07;;;2.50;;
21905;SDS011;11117;48.644;9.006;2023-04-03T12:53:51;5.10;;;2.50;;
21905;SDS011;11117;48.644;9.006;2023-04-03T12:56:28;7.43;;;2.90;;
21905;SDS011;11117;48.644;9.006;2023-04-03T12:58:56;6.37;;;2.87;;
21905;SDS011;11117;48.644;9.006;2023-04-03T13:01:52;4.57;;;2.13;;
21905;SDS011;11117;48.644;9.006;2023-04-03T13:04:23;7.83;;;3.07;;
21905;SDS011;11117;48.644;9.006;2023-04-03T13:06:52;6.23;;;2.07;;
21905;SDS011;11117;48.644;9.006;2023-04-03T13:11:58;5.73;;;2.27;;
21905;SDS011;11117;48.644;9.006;2023-04-03T13:14:27;3.83;;;2.40;;
21905;SDS011;11117;48.644;9.006;2023-04-03T13:17:04;10.13;;;2.20;;
21905;SDS011;11117;48.644;9.006;2023-04-03T13:19:39;3.87;;;2.23;;
21905;SDS011;11117;48.644;9.006;2023-04-03T13:22:06;6.50;;;2.33;;
21905;SDS011;11117;48.644;9.006;2023-04-03T13:24:43;5.53;;;2.67;;
21905;SDS011;11117;48.644;9.006;2023-04-03T13:27:12;5.03;;;2.37;;
21905;SDS011;11117;48.644;9.006;2023-04-03T13:29:38;4.63;;;2.17;;
21905;SDS011;11117;48.644;9.006;2023-04-03T13:32:04;3.60;;;2.37;;
21905;SDS011;11117;48.644;9.006;2023-04-03T13:34:38;3.90;;;2.43;;
21905;SDS011;11117;48.644;9.006;2023-04-03T13:37:11;7.63;;;2.50;;
21905;SDS011;11117;48.644;9.006;2023-04-03T13:42:33;3.50;;;2.10;;
21905;SDS011;11117;48.644;9.006;2023-04-03T13:47:42;5.40;;;2.70;;
21905;SDS011;11117;48.644;9.006;2023-04-03T13:50:14;5.13;;;2.50;;
21905;SDS011;11117;48.644;9.006;2023-04-03T13:52:42;3.33;;;2.37;;
21905;SDS011;11117;48.644;9.006;2023-04-03T13:55:26;6.83;;;2.70;;
21905;SDS011;11117;48.644;9.006;2023-04-03T13:57:59;3.83;;;2.30;;
21905;SDS011;11117;48.644;9.006;2023-04-03T14:03:22;3.43;;;2.57;;
21905;SDS011;11117;48.644;9.006;2023-04-03T14:05:50;4.73;;;2.53;;
21905;SDS011;11117;48.644;9.006;2023-04-03T14:08:17;5.33;;;2.27;;
21905;SDS011;11117;48.644;9.006;2023-04-03T14:10:45;5.83;;;2.33;;
21905;SDS011;11117;48.644;9.006;2023-04-03T14:13:11;6.20;;;2.23;;
21905;SDS011;11117;48.644;9.006;2023-04-03T14:15:40;4.87;;;2.70;;
21905;SDS011;11117;48.644;9.006;2023-04-03T14:18:05;7.03;;;2.90;;
21905;SDS011;11117;48.644;9.006;2023-04-03T14:20:31;5.50;;;2.43;;
21905;SDS011;11117;48.644;9.006;2023-04-03T14:22:57;5.10;;;3.40;;
21905;SDS011;11117;48.644;9.006;2023-04-03T14:25:22;5.70;;;2.80;;
21905;SDS011;11117;48.644;9.006;2023-04-03T14:27:48;5.67;;;2.53;;
21905;SDS011;11117;48.644;9.006;2023-04-03T14:30:17;4.80;;;2.70;;
21905;SDS011;11117;48.644;9.006;2023-04-03T14:32:46;3.43;;;2.37;;
21905;SDS011;11117;48.644;9.006;2023-04-03T14:35:12;5.63;;;2.80;;
21905;SDS011;11117;48.644;9.006;2023-04-03T14:37:39;3.57;;;2.50;;
21905;SDS011;11117;48.644;9.006;2023-04-03T14:40:05;4.73;;;2.80;;
21905;SDS011;11117;48.644;9.006;2023-04-03T14:42:33;5.83;;;2.80;;
21905;SDS011;11117;48.644;9.006;2023-04-03T14:45:01;6.13;;;3.03;;
21905;SDS011;11117;48.644;9.006;2023-04-03T14:47:28;5.37;;;2.50;;
21905;SDS011;11117;48.644;9.006;2023-04-03T14:49:55;4.17;;;2.60;;
21905;SDS011;11117;48.644;9.006;2023-04-03T14:52:22;4.40;;;2.60;;
21905;SDS011;11117;48.644;9.006;2023-04-03T14:54:55;8.37;;;3.07;;
21905;SDS011;11117;48.644;9.006;2023-04-03T14:57:23;7.10;;;3.23;;
21905;SDS011;11117;48.644;9.006;2023-04-03T14:59:50;4.97;;;2.63;;
21905;SDS011;11117;48.644;9.006;2023-04-03T15:05:02;5.93;;;2.83;;
21905;SDS011;11117;48.644;9.006;2023-04-03T15:07:30;5.83;;;2.83;;
21905;SDS011;11117;48.644;9.006;2023-04-03T15:09:59;5.73;;;3.10;;
21905;SDS011;11117;48.644;9.006;2023-04-03T15:12:28;6.83;;;3.00;;
21905;SDS011;11117;48.644;9.006;2023-04-03T15:14:53;5.27;;;2.67;;
21905;SDS011;11117;48.644;9.006;2023-04-03T15:17:19;6.67;;;2.80;;
21905;SDS011;11117;48.644;9.006;2023-04-03T15:19:47;8.13;;;2.90;;
21905;SDS011;11117;48.644;9.006;2023-04-03T15:22:16;8.43;;;2.97;;
21905;SDS011;11117;48.644;9.006;2023-04-03T15:24:43;8.90;;;3.00;;
21905;SDS011;11117;48.644;9.006;2023-04-03T15:27:10;4.47;;;2.80;;
21905;SDS011;11117;48.644;9.006;2023-04-03T15:29:37;5.50;;;2.50;;
21905;SDS011;11117;48.644;9.006;2023-04-03T15:32:04;5.33;;;2.73;;
21905;SDS011;11117;48.644;9.006;2023-04-03T15:34:29;4.87;;;2.47;;
21905;SDS011;11117;48.644;9.006;2023-04-03T15:36:56;4.37;;;2.77;;
21905;SDS011;11117;48.644;9.006;2023-04-03T15:39:22;4.27;;;2.43;;
21905;SDS011;11117;48.644;9.006;2023-04-03T15:41:49;5.50;;;2.83;;
21905;SDS011;11117;48.644;9.006;2023-04-03T15:44:14;8.30;;;2.27;;
21905;SDS011;11117;48.644;9.006;2023-04-03T15:46:40;5.10;;;2.50;;
21905;SDS011;11117;48.644;9.006;2023-04-03T15:49:05;4.03;;;2.53;;
21905;SDS011;11117;48.644;9.006;2023-04-03T15:51:31;7.43;;;3.00;;
21905;SDS011;11117;48.644;9.006;2023-04-03T15:53:57;7.00;;;3.00;;
21905;SDS011;11117;48.644;9.006;2023-04-03T15:56:22;7.10;;;3.00;;
21905;SDS011;11117;48.644;9.006;2023-04-03T15:58:48;8.67;;;2.90;;
21905;SDS011;11117;48.644;9.006;2023-04-03T16:01:13;8.17;;;3.03;;
21905;SDS011;11117;48.644;9.006;2023-04-03T16:03:40;8.53;;;3.53;;
21905;SDS011;11117;48.644;9.006;2023-04-03T16:06:07;7.37;;;3.00;;
21905;SDS011;11117;48.644;9.006;2023-04-03T16:08:32;4.40;;;2.47;;
21905;SDS011;11117;48.644;9.006;2023-04-03T16:10:58;5.50;;;2.50;;
21905;SDS011;11117;48.644;9.006;2023-04-03T16:13:23;4.27;;;2.53;;
21905;SDS011;11117;48.644;9.006;2023-04-03T16:15:49;4.90;;;2.50;;
21905;SDS011;11117;48.644;9.006;2023-04-03T16:18:14;4.67;;;2.27;;
21905;SDS011;11117;48.644;9.006;2023-04-03T16:20:40;3.83;;;2.03;;
21905;SDS011;11117;48.644;9.006;2023-04-03T16:23:06;5.83;;;2.70;;
21905;SDS011;11117;48.644;9.006;2023-04-03T16:25:31;3.57;;;1.90;;
21905;SDS011;11117;48.644;9.006;2023-04-03T16:27:57;4.07;;;2.60;;
21905;SDS011;11117;48.644;9.006;2023-04-03T16:30:22;6.77;;;2.90;;
21905;SDS011;11117;48.644;9.006;2023-04-03T16:32:48;6.33;;;2.63;;
21905;SDS011;11117;48.644;9.006;2023-04-03T16:35:14;4.30;;;2.40;;
21905;SDS011;11117;48.644;9.006;2023-04-03T16:37:42;5.70;;;2.90;;
21905;SDS011;11117;48.644;9.006;2023-04-03T16:40:08;4.57;;;2.67;;
21905;SDS011;11117;48.644;9.006;2023-04-03T16:42:34;5.17;;;2.47;;
21905;SDS011;11117;48.644;9.006;2023-04-03T16:44:59;5.37;;;2.63;;
21905;SDS011;11117;48.644;9.006;2023-04-03T16:47:25;4.70;;;2.70;;
21905;SDS011;11117;48.644;9.006;2023-04-03T16:49:50;4.17;;;2.40;;
21905;SDS011;11117;48.644;9.006;2023-04-03T16:52:16;4.23;;;2.57;;
21905;SDS011;11117;48.644;9.006;2023-04-03T16:54:42;4.93;;;2.63;;
21905;SDS011;11117;48.644;9.006;2023-04-03T16:57:07;4.00;;;2.60;;
21905;SDS011;11117;48.644;9.006;2023-04-03T16:59:33;3.10;;;1.70;;
21905;SDS011;11117;48.644;9.006;2023-04-03T17:01:59;6.00;;;2.90;;